createdAt,value
2022-10-21T00:04:47.132Z,11.52
2022-10-21T00:09:38.907Z,13.88
2022-10-21T00:14:30.628Z,14.48
2022-10-21T00:19:22.601Z,11.02
2022-10-21T00:24:14.233Z,20.73
2022-10-21T00:29:05.864Z,14.15
2022-10-21T00:33:57.533Z,7.30
2022-10-21T00:38:49.456Z,15.73
2022-10-21T00:44:01.687Z,11.40
2022-10-21T00:48:57.781Z,21.05
2022-10-21T00:53:50.523Z,18.33
2022-10-21T00:58:42.260Z,28.63
2022-10-21T01:03:35.210Z,15.43
2022-10-21T01:08:28.638Z,51.33
2022-10-21T01:13:38.913Z,89.47
2022-10-21T01:18:31.015Z,117.80
2022-10-21T01:23:31.908Z,59.15
2022-10-21T01:28:38.511Z,50.05
2022-10-21T01:33:54.616Z,75.13
2022-10-21T01:39:11.165Z,93.45
2022-10-21T01:44:12.700Z,72.85
2022-10-21T01:49:27.198Z,45.00
2022-10-21T01:54:30.898Z,29.75
2022-10-21T01:59:27.853Z,14.60
2022-10-21T02:04:20.631Z,16.70
2022-10-21T02:09:12.787Z,19.02
2022-10-21T02:14:29.247Z,17.13
2022-10-21T02:19:21.839Z,15.52
2022-10-21T02:24:13.658Z,24.30
2022-10-21T02:29:05.430Z,83.20
2022-10-21T02:34:07.894Z,47.25
2022-10-21T02:39:07.448Z,17.65
2022-10-21T02:44:01.906Z,19.30
2022-10-21T02:48:54.233Z,18.08
2022-10-21T02:53:45.835Z,20.52
2022-10-21T02:58:37.525Z,20.13
2022-10-21T03:03:29.982Z,15.13
2022-10-21T03:08:21.701Z,15.35
2022-10-21T03:13:13.365Z,13.82
2022-10-21T03:18:05.081Z,17.58
2022-10-21T03:22:56.714Z,12.50
2022-10-21T03:27:50.589Z,13.52
2022-10-21T03:32:42.324Z,14.95
2022-10-21T03:37:33.942Z,18.80
2022-10-21T03:42:25.645Z,19.30
2022-10-21T03:47:17.299Z,16.30
2022-10-21T03:52:08.935Z,12.82
2022-10-21T03:57:00.704Z,12.82
2022-10-21T04:01:52.698Z,13.07
2022-10-21T04:06:44.457Z,11.20
2022-10-21T04:11:36.136Z,11.90
2022-10-21T04:16:27.971Z,12.52
2022-10-21T04:21:19.889Z,11.13
2022-10-21T04:26:12.185Z,12.70
2022-10-21T04:31:03.959Z,8.85
2022-10-21T04:35:56.079Z,9.50
2022-10-21T04:40:47.709Z,10.90
2022-10-21T04:45:40.104Z,14.32
2022-10-21T04:50:32.608Z,13.98
2022-10-21T04:55:24.321Z,14.68
2022-10-21T05:00:15.963Z,17.88
2022-10-21T05:05:08.124Z,18.25
2022-10-21T05:09:59.762Z,18.15
2022-10-21T05:14:51.477Z,19.45
2022-10-21T05:19:43.081Z,25.83
2022-10-21T05:24:34.787Z,19.20
2022-10-21T05:29:26.454Z,17.25
2022-10-21T05:34:18.195Z,17.90
2022-10-21T05:39:11.534Z,22.20
2022-10-21T05:44:03.527Z,20.65
2022-10-21T05:48:55.139Z,20.70
2022-10-21T05:53:46.901Z,21.95
2022-10-21T05:58:38.563Z,20.40
2022-10-21T06:03:33.070Z,19.88
2022-10-21T06:08:25.088Z,22.73
2022-10-21T06:13:16.646Z,25.05
2022-10-21T06:18:08.284Z,23.00
2022-10-21T06:23:00.835Z,22.13
2022-10-21T06:27:53.308Z,24.05
2022-10-21T06:32:45.121Z,22.90
2022-10-21T06:37:37.022Z,21.77
2022-10-21T06:42:28.837Z,20.30
2022-10-21T06:47:20.406Z,19.85
2022-10-21T06:52:12.300Z,21.80
2022-10-21T06:57:04.478Z,22.52
2022-10-21T07:02:00.221Z,21.48
2022-10-21T07:06:52.836Z,22.90
2022-10-21T07:11:44.769Z,26.38
2022-10-21T07:16:37.091Z,26.85
2022-10-21T07:21:30.771Z,35.80
2022-10-21T07:26:23.824Z,30.38
2022-10-21T07:31:19.802Z,24.48
2022-10-21T07:36:15.907Z,30.08
2022-10-21T07:41:08.135Z,24.48
2022-10-21T07:46:03.179Z,26.80
2022-10-21T07:51:04.575Z,69.22
2022-10-21T07:56:08.606Z,53.67
2022-10-21T08:01:01.997Z,91.47
2022-10-21T08:05:54.719Z,80.05
2022-10-21T08:10:46.373Z,88.07
2022-10-21T08:15:42.648Z,83.28
2022-10-21T08:20:34.347Z,38.70
2022-10-21T08:25:29.987Z,35.60
2022-10-21T08:30:21.929Z,34.08
2022-10-21T08:35:13.509Z,31.75
2022-10-21T08:40:05.797Z,29.65
2022-10-21T08:45:07.046Z,35.30
2022-10-21T08:50:04.350Z,33.38
2022-10-21T08:55:03.801Z,35.40
2022-10-21T08:59:55.821Z,32.92
2022-10-21T09:05:17.110Z,30.85
2022-10-21T09:10:22.647Z,33.85
2022-10-21T09:15:40.347Z,30.95
2022-10-21T09:21:03.357Z,34.73
2022-10-21T09:26:01.180Z,29.55
2022-10-21T09:30:54.276Z,34.85
2022-10-21T09:35:59.256Z,26.67
2022-10-21T09:40:53.044Z,30.63
2022-10-21T09:45:46.318Z,37.38
2022-10-21T09:50:38.006Z,27.08
2022-10-21T09:55:31.759Z,21.27
2022-10-21T10:00:42.951Z,20.25
2022-10-21T10:05:35.901Z,20.25
2022-10-21T10:10:33.635Z,18.63
2022-10-21T10:15:39.063Z,23.05
2022-10-21T10:20:30.687Z,17.77
2022-10-21T10:25:24.371Z,19.17
2022-10-21T10:30:17.141Z,18.85
2022-10-21T10:35:21.726Z,22.10
2022-10-21T10:40:26.125Z,13.63
2022-10-21T10:45:22.789Z,14.15
2022-10-21T10:50:51.707Z,9.55
2022-10-21T11:00:43.145Z,15.68
2022-10-21T11:05:38.596Z,8.75
2022-10-21T11:10:35.496Z,10.75
2022-10-21T11:15:50.116Z,9.55
2022-10-21T11:21:12.065Z,7.40
2022-10-21T11:26:12.353Z,8.32
2022-10-21T11:31:20.752Z,12.57
2022-10-21T11:36:17.754Z,7.45
2022-10-21T11:41:28.395Z,7.97
2022-10-21T11:46:38.520Z,9.07
2022-10-21T11:52:03.572Z,6.95
2022-10-21T11:57:14.698Z,6.78
2022-10-21T12:02:25.602Z,10.13
2022-10-21T12:07:40.834Z,8.15
2022-10-21T12:12:38.003Z,4.60
2022-10-21T12:17:34.635Z,6.75
2022-10-21T12:22:29.354Z,5.88
2022-10-21T12:27:38.678Z,8.88
2022-10-21T12:33:06.768Z,8.68
2022-10-21T12:37:59.841Z,8.87
2022-10-21T12:43:28.847Z,6.50
2022-10-21T12:48:39.991Z,6.65
2022-10-21T12:53:40.223Z,7.70
2022-10-21T12:58:39.949Z,5.97
2022-10-21T13:03:55.115Z,4.72
2022-10-21T13:08:49.887Z,7.05
2022-10-21T13:13:46.291Z,5.15
2022-10-21T13:18:56.666Z,5.20
2022-10-21T13:23:52.084Z,10.18
2022-10-21T13:29:07.570Z,7.78
2022-10-21T13:34:01.013Z,7.60
2022-10-21T13:38:55.705Z,8.75
2022-10-21T13:44:00.081Z,7.35
2022-10-21T13:48:51.937Z,5.35
2022-10-21T13:53:46.252Z,7.93
2022-10-21T13:58:40.368Z,8.73
2022-10-21T14:03:32.229Z,9.30
2022-10-21T14:08:28.765Z,4.93
2022-10-21T14:13:25.413Z,7.50
2022-10-21T14:18:33.524Z,16.48
2022-10-21T14:23:29.727Z,6.97
2022-10-21T14:28:22.498Z,9.73
2022-10-21T14:33:28.581Z,9.48
2022-10-21T14:38:29.674Z,9.68
2022-10-21T14:43:31.147Z,6.63
2022-10-21T14:48:33.493Z,8.13
2022-10-21T14:53:26.211Z,5.45
2022-10-21T14:58:23.739Z,8.63
2022-10-21T15:08:19.240Z,5.85
2022-10-21T15:13:19.440Z,6.50
2022-10-21T15:18:43.915Z,5.50
2022-10-21T15:23:37.729Z,5.78
2022-10-21T15:28:33.261Z,9.32
2022-10-21T15:33:25.471Z,9.70
2022-10-21T15:38:17.157Z,8.48
2022-10-21T15:43:10.724Z,8.95
2022-10-21T15:48:02.338Z,9.57
2022-10-21T15:57:50.889Z,6.18
2022-10-21T16:02:42.489Z,6.75
2022-10-21T16:07:34.347Z,3.70
2022-10-21T16:12:26.035Z,6.95
2022-10-21T16:17:18.028Z,3.40
2022-10-21T16:22:22.582Z,5.50
2022-10-21T16:27:26.435Z,6.72
2022-10-21T16:32:23.240Z,6.25
2022-10-21T16:37:27.439Z,7.30
2022-10-21T16:42:20.415Z,5.43
2022-10-21T16:47:18.188Z,5.10
2022-10-21T16:52:13.154Z,5.53
2022-10-21T16:57:06.966Z,5.63
2022-10-21T17:02:00.030Z,6.57
2022-10-21T17:06:51.882Z,4.63
2022-10-21T17:11:43.822Z,7.10
2022-10-21T17:16:35.504Z,5.72
2022-10-21T17:21:32.249Z,7.43
2022-10-21T17:26:24.247Z,2.78
2022-10-21T17:31:21.560Z,3.63
2022-10-21T17:36:13.897Z,5.13
2022-10-21T17:41:05.716Z,6.78
2022-10-21T17:45:57.584Z,3.38
2022-10-21T17:50:57.298Z,5.15
2022-10-21T17:56:00.552Z,9.27
2022-10-21T18:00:52.521Z,7.43
2022-10-21T18:05:46.461Z,7.40
2022-10-21T18:10:38.102Z,5.82
2022-10-21T18:15:31.479Z,5.45
2022-10-21T18:20:24.212Z,7.43
2022-10-21T18:25:15.935Z,4.90
2022-10-21T18:30:08.390Z,4.70
2022-10-21T18:35:00.102Z,4.93
2022-10-21T18:39:55.342Z,7.13
2022-10-21T18:44:51.393Z,5.25
2022-10-21T18:49:43.024Z,6.07
2022-10-21T18:54:35.028Z,8.30
2022-10-21T18:59:26.654Z,6.25
2022-10-21T19:04:18.361Z,9.18
2022-10-21T19:09:22.018Z,8.27
2022-10-21T19:14:15.241Z,5.57
2022-10-21T19:19:07.522Z,7.45
2022-10-21T19:24:01.517Z,7.78
2022-10-21T19:29:00.169Z,8.00
2022-10-21T19:33:51.988Z,6.97
2022-10-21T19:38:44.630Z,4.88
2022-10-21T19:43:37.152Z,7.25
2022-10-21T19:48:29.102Z,4.80
2022-10-21T19:53:20.769Z,2.40
2022-10-21T19:58:12.385Z,4.22
2022-10-21T20:03:04.423Z,4.03
2022-10-21T20:07:56.124Z,2.25
2022-10-21T20:12:47.797Z,4.35
2022-10-21T20:17:39.494Z,6.88
2022-10-21T20:22:31.088Z,4.13
2022-10-21T20:27:22.748Z,5.60
2022-10-21T20:32:14.335Z,3.75
2022-10-21T20:37:06.321Z,3.97
2022-10-21T20:41:57.936Z,3.75
2022-10-21T20:46:49.643Z,4.40
2022-10-21T20:51:42.531Z,2.45
2022-10-21T20:56:37.266Z,2.83
2022-10-21T21:01:32.414Z,2.78
2022-10-21T21:06:25.632Z,1.63
2022-10-21T21:11:17.701Z,1.40
2022-10-21T21:16:14.992Z,3.10
2022-10-21T21:21:13.077Z,4.80
2022-10-21T21:26:11.080Z,4.50
2022-10-21T21:31:04.137Z,5.35
2022-10-21T21:35:59.171Z,3.47
2022-10-21T21:40:50.844Z,3.17
2022-10-21T21:45:48.693Z,2.55
2022-10-21T21:55:32.983Z,4.00
2022-10-21T22:00:25.029Z,2.60
2022-10-21T22:05:16.789Z,4.47
2022-10-21T22:10:08.982Z,3.13
2022-10-21T22:15:00.726Z,3.10
2022-10-21T22:19:53.998Z,1.90
2022-10-21T22:24:46.240Z,3.50
2022-10-21T22:29:37.929Z,2.65
2022-10-21T22:34:29.648Z,1.98
2022-10-21T22:39:21.450Z,1.35
2022-10-21T22:44:13.261Z,2.72
2022-10-21T22:49:05.375Z,4.72
2022-10-21T22:53:57.363Z,1.75
2022-10-21T22:58:48.975Z,1.83
2022-10-21T23:03:40.767Z,4.03
2022-10-21T23:08:32.610Z,5.75
2022-10-21T23:13:24.836Z,6.93
2022-10-21T23:18:17.615Z,4.80
2022-10-21T23:23:10.343Z,3.15
2022-10-21T23:28:02.037Z,3.15
2022-10-21T23:32:54.132Z,3.97
2022-10-21T23:37:45.964Z,2.92
2022-10-21T23:42:41.969Z,3.92
2022-10-21T23:47:35.719Z,5.53
2022-10-21T23:52:27.315Z,5.97
2022-10-21T23:57:19.082Z,4.05
